createdAt,value
2017-07-22T00:02:19.529Z,89.94
2017-07-22T00:04:43.809Z,92.07
2017-07-22T00:07:08.110Z,91.39
2017-07-22T00:09:32.382Z,91.09
2017-07-22T00:11:39.677Z,91.97
2017-07-22T00:14:03.858Z,92.16
2017-07-22T00:16:28.150Z,91.29
2017-07-22T00:18:44.045Z,91.77
2017-07-22T00:20:59.879Z,91.19
2017-07-22T00:23:24.097Z,91.67
2017-07-22T00:25:48.396Z,92.55
2017-07-22T00:28:12.698Z,91.87
2017-07-22T00:30:36.968Z,91.09
2017-07-22T00:33:01.259Z,90.81
2017-07-22T00:35:25.544Z,90.52
2017-07-22T00:37:49.837Z,91.09
2017-07-22T00:40:14.021Z,91.44
2017-07-22T00:42:38.207Z,91.19
2017-07-22T00:45:02.491Z,90.23
2017-07-22T00:47:26.777Z,90.23
2017-07-22T00:49:51.067Z,89.65
2017-07-22T00:52:15.367Z,89.07
2017-07-22T00:54:39.645Z,90.42
2017-07-22T00:56:55.529Z,90.95
2017-07-22T00:59:11.227Z,90.86
2017-07-22T01:01:12.634Z,91.83
2017-07-22T01:03:36.854Z,91.92
2017-07-22T01:05:52.598Z,92.31
2017-07-22T01:08:16.780Z,91.35
2017-07-22T01:10:32.479Z,91.53
2017-07-22T01:12:56.586Z,92.5
2017-07-22T01:15:12.320Z,91.83
2017-07-22T01:17:36.500Z,91.15
2017-07-22T01:20:00.740Z,92.02
2017-07-22T01:22:25.026Z,92.41
2017-07-22T01:24:40.814Z,91.35
2017-07-22T01:27:05.104Z,91.73
2017-07-22T01:29:29.282Z,92.41
2017-07-22T01:31:53.574Z,92.98
2017-07-22T01:34:17.751Z,91.73
2017-07-22T01:36:41.936Z,92.31
2017-07-22T01:39:06.120Z,92.5
2017-07-22T01:41:30.437Z,93.52
2017-07-22T01:43:54.697Z,93.37
2017-07-22T01:46:18.999Z,92.5
2017-07-22T01:48:43.267Z,93.08
2017-07-22T01:51:07.459Z,92.69
2017-07-22T01:53:23.254Z,92.98
2017-07-22T01:55:47.436Z,92.31
2017-07-22T01:58:03.216Z,92.6
2017-07-22T01:59:56.167Z,92.31
2017-07-22T02:02:20.353Z,92.21
2017-07-22T02:04:44.537Z,92.98
2017-07-22T02:07:08.822Z,93.08
2017-07-22T02:09:16.164Z,93.85
2017-07-22T02:11:31.896Z,93.85
2017-07-22T02:13:56.186Z,94.72
2017-07-22T02:16:20.475Z,94.14
2017-07-22T02:18:36.252Z,93.76
2017-07-22T02:21:00.442Z,94.53
2017-07-22T02:23:16.202Z,94.04
2017-07-22T02:25:40.416Z,93.66
2017-07-22T02:28:04.709Z,95.2
2017-07-22T02:30:28.860Z,96.08
2017-07-22T02:32:44.678Z,95.59
2017-07-22T02:35:08.962Z,96.36
2017-07-22T02:37:33.246Z,96.94
2017-07-22T02:39:57.532Z,97.72
2017-07-22T02:42:21.718Z,97.42
2017-07-22T02:44:45.897Z,96.08
2017-07-22T02:47:10.088Z,96.36
2017-07-22T02:49:09.028Z,95.98
2017-07-22T02:51:10.423Z,96.17
2017-07-22T02:53:11.801Z,96.26
2017-07-22T02:55:27.547Z,96.66
2017-07-22T02:57:43.209Z,97.86
2017-07-22T03:00:07.348Z,97.47
2017-07-22T03:02:31.495Z,96.36
2017-07-22T03:04:55.630Z,96.94
2017-07-22T03:07:11.340Z,96.66
2017-07-22T03:09:27.074Z,96.26
2017-07-22T03:11:51.254Z,96.84
2017-07-22T03:14:15.436Z,95.4
2017-07-22T03:16:39.623Z,95.88
2017-07-22T03:19:03.908Z,96.61
2017-07-22T03:21:28.050Z,97.28
2017-07-22T03:23:52.281Z,96.08
2017-07-22T03:26:08.015Z,95.3
2017-07-22T03:28:23.845Z,95.01
2017-07-22T03:30:48.136Z,94.24
2017-07-22T03:33:03.933Z,95.01
2017-07-22T03:35:28.221Z,94.62
2017-07-22T03:37:52.503Z,95.88
2017-07-22T03:40:16.681Z,94.72
2017-07-22T03:42:40.873Z,94.34
2017-07-22T03:44:39.753Z,94.43
2017-07-22T03:47:03.942Z,95.01
2017-07-22T03:49:28.129Z,95.78
2017-07-22T03:51:52.316Z,96.8
2017-07-22T03:54:16.476Z,96.89
2017-07-22T03:56:26.433Z,98.83
2017-07-22T03:58:50.614Z,97.67
2017-07-22T04:01:14.794Z,96.89
2017-07-22T04:03:38.962Z,96.03
2017-07-22T04:06:03.139Z,97.47
2017-07-22T04:08:13.091Z,97.67
2017-07-22T04:10:28.810Z,99.88
2017-07-22T04:12:52.973Z,99.5
2017-07-22T04:15:08.676Z,99.31
2017-07-22T04:17:32.877Z,99.21
2017-07-22T04:19:57.055Z,98.54
2017-07-22T04:22:12.797Z,97.86
2017-07-22T04:24:37.028Z,97.04
2017-07-22T04:27:01.185Z,95.78
2017-07-22T04:29:25.404Z,94.92
2017-07-22T04:31:49.537Z,94.62
2017-07-22T04:34:13.767Z,94.72
2017-07-22T04:36:37.888Z,94.24
2017-07-22T04:39:02.147Z,94.43
2017-07-22T04:41:26.322Z,94.34
2017-07-22T04:43:42.166Z,93.8
2017-07-22T04:46:06.396Z,92.55
2017-07-22T04:48:30.691Z,91.29
2017-07-22T04:50:54.978Z,90.33
2017-07-22T04:52:56.389Z,89.79
2017-07-22T04:55:20.610Z,90.56
2017-07-22T04:57:44.800Z,89.4
2017-07-22T05:00:08.973Z,87.61
2017-07-22T05:02:33.218Z,86.93
2017-07-22T05:04:57.469Z,85.62
2017-07-22T05:07:13.344Z,83.53
2017-07-22T05:09:29.174Z,76.79
2017-07-22T05:11:45.076Z,66.6
2017-07-22T05:14:01.041Z,66.47
2017-07-22T05:16:25.731Z,60.61
2017-07-22T05:18:50.379Z,58.3
2017-07-22T05:21:06.735Z,61.33
2017-07-22T05:23:31.638Z,56.04
2017-07-22T05:25:56.491Z,53.3
2017-07-22T05:27:58.563Z,54.16
2017-07-22T05:30:23.606Z,45.96
2017-07-22T05:32:48.747Z,39.18
2017-07-22T05:35:14.096Z,40.94
2017-07-22T05:37:39.600Z,45.89
2017-07-22T05:39:56.590Z,49.21
2017-07-22T05:42:13.408Z,51.05
2017-07-22T05:44:38.692Z,50.39
2017-07-22T05:47:03.892Z,47.25
2017-07-22T05:49:20.714Z,45.6
2017-07-22T05:51:37.639Z,36.61
2017-07-22T05:53:54.675Z,31.67
2017-07-22T05:56:20.394Z,28.67
2017-07-22T05:58:46.182Z,28.17
2017-07-22T06:01:12.166Z,25.87
2017-07-22T06:03:38.301Z,22.58
2017-07-22T06:06:04.754Z,23.23
2017-07-22T06:08:31.207Z,21.79
2017-07-22T06:10:58.184Z,20.62
2017-07-22T06:13:24.972Z,19.15
2017-07-22T06:15:51.781Z,17.78
2017-07-22T06:18:18.817Z,16.5
2017-07-22T06:20:45.898Z,16.12
2017-07-22T06:23:13.180Z,15.32
2017-07-22T06:25:40.521Z,15.13
2017-07-22T06:28:07.875Z,15.41
2017-07-22T06:30:35.251Z,14.81
2017-07-22T06:32:37.471Z,13.42
2017-07-22T06:34:56.345Z,13.73
2017-07-22T06:37:23.864Z,13.54
2017-07-22T06:39:26.058Z,14.1
2017-07-22T06:41:53.723Z,14.58
2017-07-22T06:44:21.588Z,13.53
2017-07-22T06:46:49.221Z,13.12
2017-07-22T06:49:17.114Z,12.13
2017-07-22T06:51:44.961Z,12.72
2017-07-22T06:54:12.846Z,17.71
2017-07-22T06:56:40.797Z,21.7
2017-07-22T06:59:08.668Z,22.18
2017-07-22T07:01:36.533Z,22.85
2017-07-22T07:04:04.414Z,22.77
2017-07-22T07:06:23.495Z,22.64
2017-07-22T07:08:36.268Z,25.9
2017-07-22T07:11:03.701Z,26.68
2017-07-22T07:13:30.837Z,27.95
2017-07-22T07:15:57.785Z,27.83
2017-07-22T07:18:25.572Z,30.52
2017-07-22T07:20:36.501Z,32.09
2017-07-22T07:22:54.471Z,32.37
2017-07-22T07:25:32.505Z,32.75
2017-07-22T07:27:58.709Z,34.38
2017-07-22T07:30:24.893Z,35.15
2017-07-22T07:32:51.079Z,35.05
2017-07-22T07:35:17.065Z,37.73
2017-07-22T07:37:43.094Z,36.8
2017-07-22T07:40:09.020Z,35.66
2017-07-22T07:42:35.894Z,35.27
2017-07-22T07:44:53.202Z,35.28
2017-07-22T07:47:19.106Z,33.95
2017-07-22T07:49:36.439Z,33.65
2017-07-22T07:51:53.918Z,31.95
2017-07-22T07:54:20.003Z,31.45
2017-07-22T07:56:46.119Z,32.4
2017-07-22T07:59:03.652Z,30.59
2017-07-22T08:01:21.195Z,29.34
2017-07-22T08:03:47.268Z,29.93
2017-07-22T08:06:13.396Z,28.76
2017-07-22T08:08:40.172Z,28.34
2017-07-22T08:11:05.817Z,28.47
2017-07-22T08:13:32.056Z,28.46
2017-07-22T08:15:59.742Z,26.35
2017-07-22T08:18:30.320Z,26.43
2017-07-22T08:20:56.959Z,26.25
2017-07-22T08:23:23.242Z,25.68
2017-07-22T08:25:49.628Z,24.49
2017-07-22T08:28:16.611Z,24.69
2017-07-22T08:30:43.111Z,25.68
2017-07-22T08:33:09.641Z,27.11
2017-07-22T08:35:35.947Z,26.31
2017-07-22T08:38:02.963Z,27.29
2017-07-22T08:40:29.323Z,29.13
2017-07-22T08:42:55.511Z,27.36
2017-07-22T08:45:21.701Z,29.96
2017-07-22T08:47:47.832Z,32.07
2017-07-22T08:49:41.632Z,35.69
2017-07-22T08:52:07.628Z,36.55
2017-07-22T08:54:33.483Z,38.17
2017-07-22T08:56:59.263Z,40.51
2017-07-22T08:59:24.993Z,35.05
2017-07-22T09:01:50.709Z,32.18
2017-07-22T09:04:16.509Z,34.3
2017-07-22T09:06:42.270Z,30.19
2017-07-22T09:09:08.195Z,28.36
2017-07-22T09:11:33.991Z,28.26
2017-07-22T09:13:44.436Z,27.3
2017-07-22T09:16:10.314Z,29
2017-07-22T09:18:36.288Z,29.43
2017-07-22T09:21:02.458Z,29.11
2017-07-22T09:23:28.653Z,27.47
2017-07-22T09:25:54.875Z,27.58
2017-07-22T09:28:25.898Z,29.19
2017-07-22T09:30:50.476Z,29.65
2017-07-22T09:34:52.857Z,31.11
2017-07-22T09:37:27.475Z,32.43
2017-07-22T09:39:52.418Z,32.45
2017-07-22T09:42:18.523Z,29.68
2017-07-22T09:44:44.946Z,30.79
2017-07-22T09:47:10.586Z,29.14
2017-07-22T09:49:36.466Z,29.64
2017-07-22T09:52:02.520Z,31.51
2017-07-22T09:54:28.611Z,32.53
2017-07-22T09:56:54.342Z,34.43
2017-07-22T09:59:11.443Z,33.08
2017-07-22T10:01:37.124Z,33.26
2017-07-22T10:03:38.903Z,35.76
2017-07-22T10:06:04.565Z,35.46
2017-07-22T10:08:21.608Z,35.27
2017-07-22T10:10:47.195Z,35.27
2017-07-22T10:13:12.707Z,35.94
2017-07-22T10:15:38.236Z,36.46
2017-07-22T10:18:03.783Z,36.82
2017-07-22T10:20:29.271Z,37.69
2017-07-22T10:22:54.774Z,37.05
2017-07-22T10:25:20.217Z,35.61
2017-07-22T10:27:45.682Z,35.22
2017-07-22T10:30:11.186Z,35.61
2017-07-22T10:32:36.694Z,35.69
2017-07-22T10:35:02.254Z,34.41
2017-07-22T10:37:27.798Z,35.2
2017-07-22T10:39:53.291Z,34.64
2017-07-22T10:42:18.783Z,35.41
2017-07-22T10:44:44.452Z,35.56
2017-07-22T10:47:10.375Z,35.76
2017-07-22T10:49:38.832Z,36.51
2017-07-22T10:52:05.168Z,37.01
2017-07-22T10:54:31.845Z,36.74
2017-07-22T10:56:57.619Z,35.1
2017-07-22T10:59:14.568Z,35.1
2017-07-22T11:01:40.017Z,36.33
2017-07-22T11:04:05.591Z,37.49
2017-07-22T11:06:33.875Z,37.61
2017-07-22T11:08:59.701Z,37.57
2017-07-22T11:11:26.200Z,37.77
2017-07-22T11:13:51.637Z,37.69
2017-07-22T11:16:18.760Z,37.4
2017-07-22T11:18:35.825Z,37.3
2017-07-22T11:21:03.144Z,37.08
2017-07-22T11:23:28.431Z,37.59
2017-07-22T11:25:53.832Z,37.4
2017-07-22T11:28:19.213Z,38.12
2017-07-22T11:30:36.069Z,36.86
2017-07-22T11:33:01.844Z,36.61
2017-07-22T11:35:29.343Z,35.58
2017-07-22T11:37:54.163Z,36.96
2017-07-22T11:43:31.456Z,37.53
2017-07-22T11:45:56.906Z,37.89
2017-07-22T11:48:22.337Z,38.2
2017-07-22T11:50:39.260Z,37.83
2017-07-22T11:52:56.186Z,38.38
2017-07-22T11:55:13.048Z,38.07
2017-07-22T11:57:38.398Z,38.36
2017-07-22T12:00:03.934Z,37.76
2017-07-22T12:02:29.337Z,38.46
2017-07-22T12:04:54.723Z,38.58
2017-07-22T12:07:20.193Z,38.76
2017-07-22T12:09:45.580Z,38.66
2017-07-22T12:12:11.022Z,38.58
2017-07-22T12:14:29.821Z,39.13
2017-07-22T12:16:55.739Z,40.29
2017-07-22T12:19:21.180Z,39.23
2017-07-22T12:21:46.684Z,38.42
2017-07-22T12:24:11.965Z,38.42
2017-07-22T12:26:37.400Z,38.56
2017-07-22T12:29:03.065Z,37.51
2017-07-22T12:31:29.301Z,37.71
2017-07-22T12:33:54.771Z,37.61
2017-07-22T12:36:20.135Z,37.99
2017-07-22T12:38:46.171Z,37.59
2017-07-22T12:41:11.477Z,37.99
2017-07-22T12:43:38.223Z,37.87
2017-07-22T12:46:03.823Z,37.2
2017-07-22T12:48:22.844Z,37.24
2017-07-22T12:50:59.173Z,38.48
2017-07-22T12:53:25.360Z,39.82
2017-07-22T12:55:50.740Z,39.44
2017-07-22T12:58:16.193Z,40.76
2017-07-22T13:00:21.742Z,40.45
2017-07-22T13:02:47.853Z,41.24
2017-07-22T13:05:15.378Z,41.88
2017-07-22T13:07:42.188Z,41.41
2017-07-22T13:10:08.550Z,42.19
2017-07-22T13:12:34.719Z,44.21
2017-07-22T13:15:01.406Z,43.13
2017-07-22T13:17:34.763Z,44.23
2017-07-22T13:20:00.767Z,43.18
2017-07-22T13:22:26.483Z,43.19
2017-07-22T13:24:59.799Z,42.65
2017-07-22T13:27:27.678Z,41.94
2017-07-22T13:29:54.082Z,43.08
2017-07-22T13:32:24.022Z,41.27
2017-07-22T13:34:49.089Z,41.35
2017-07-22T13:37:14.360Z,41.92
2017-07-22T13:39:40.452Z,40.9
2017-07-22T13:42:07.418Z,40.41
2017-07-22T13:44:32.916Z,40.03
2017-07-22T13:46:59.018Z,39.34
2017-07-22T13:49:25.072Z,39.74
2017-07-22T13:51:50.570Z,38.99
2017-07-22T13:54:15.903Z,39.74
2017-07-22T13:56:42.670Z,40.39
2017-07-22T13:59:08.301Z,39.72
2017-07-22T14:01:35.907Z,39.8
2017-07-22T14:04:01.302Z,39.82
2017-07-22T14:06:30.042Z,42.57
2017-07-22T14:08:56.522Z,41.63
2017-07-22T14:11:23.282Z,41.68
2017-07-22T14:13:48.800Z,41.24
2017-07-22T14:16:14.240Z,40.78
2017-07-22T14:18:39.826Z,39.4
2017-07-22T14:21:05.331Z,39.62
2017-07-22T14:23:30.631Z,40.58
2017-07-22T14:25:56.244Z,40.76
2017-07-22T14:28:24.726Z,42
2017-07-22T14:30:49.974Z,42.74
2017-07-22T14:33:16.149Z,42.19
2017-07-22T14:35:41.677Z,41.43
2017-07-22T14:38:07.572Z,42.1
2017-07-22T14:40:33.305Z,41.21
2017-07-22T14:42:59.264Z,43.8
2017-07-22T14:45:24.538Z,43.55
2017-07-22T14:47:49.747Z,42.47
2017-07-22T14:50:14.947Z,42.8
2017-07-22T14:52:41.009Z,42.43
2017-07-22T14:55:07.455Z,42.33
2017-07-22T14:57:32.651Z,42.68
2017-07-22T14:59:58.814Z,41.45
2017-07-22T15:02:25.430Z,41.19
2017-07-22T15:04:50.795Z,40.76
2017-07-22T15:07:15.930Z,40.95
2017-07-22T15:09:28.540Z,40.47
2017-07-22T15:11:40.809Z,40.29
2017-07-22T15:14:06.376Z,40.72
2017-07-22T15:16:31.525Z,40.33
2017-07-22T15:21:46.918Z,41.03
2017-07-22T15:24:13.149Z,39.59
2017-07-22T15:26:39.138Z,39.66
2017-07-22T15:29:04.220Z,41.03
2017-07-22T15:31:29.241Z,40.66
2017-07-22T15:33:45.868Z,39.41
2017-07-22T15:36:10.942Z,38.93
2017-07-22T15:38:36.050Z,39.11
2017-07-22T15:41:01.169Z,38.56
2017-07-22T15:43:26.339Z,38.85
2017-07-22T15:45:51.478Z,39.15
2017-07-22T15:48:16.725Z,38.85
2017-07-22T15:50:41.870Z,38.46
2017-07-22T15:53:07.007Z,39.62
2017-07-22T15:55:09.138Z,40.63
2017-07-22T15:57:34.316Z,40.92
2017-07-22T15:59:59.451Z,41.29
2017-07-22T16:02:07.582Z,39.61
2017-07-22T16:04:32.725Z,39.51
2017-07-22T16:06:57.824Z,40.37
2017-07-22T16:09:14.458Z,40.74
2017-07-22T16:11:39.571Z,40.94
2017-07-22T16:13:56.149Z,40.45
2017-07-22T16:16:21.266Z,40.74
2017-07-22T16:18:46.340Z,39.54
2017-07-22T16:21:11.375Z,40.23
2017-07-22T16:23:27.905Z,41.11
2017-07-22T16:25:29.558Z,41.19
2017-07-22T16:27:54.624Z,41
2017-07-22T16:30:19.586Z,40.7
2017-07-22T16:32:36.103Z,40.6
2017-07-22T16:35:01.058Z,40.14
2017-07-22T16:37:26.101Z,39.54
2017-07-22T16:39:51.113Z,39.56
2017-07-22T16:42:16.149Z,40.53
2017-07-22T16:44:41.201Z,41.19
2017-07-22T16:46:57.695Z,41.58
2017-07-22T16:49:22.657Z,41.76
2017-07-22T16:51:39.119Z,41.49
2017-07-22T16:54:04.108Z,41.19
2017-07-22T16:56:29.056Z,41.29
2017-07-22T16:58:45.532Z,41.41
2017-07-22T17:01:10.539Z,40.6
2017-07-22T17:03:27.038Z,41.09
2017-07-22T17:05:52.020Z,41
2017-07-22T17:08:16.947Z,40.9
2017-07-22T17:10:33.377Z,40.7
2017-07-22T17:12:58.322Z,41.19
2017-07-22T17:15:23.295Z,40.7
2017-07-22T17:17:48.262Z,40.7
2017-07-22T17:20:13.222Z,41.02
2017-07-22T17:22:39.154Z,39.74
2017-07-22T17:25:04.190Z,40.11
2017-07-22T17:27:20.706Z,39.41
2017-07-22T17:29:45.696Z,39.02
2017-07-22T17:32:10.642Z,38.82
2017-07-22T17:34:35.678Z,38.71
2017-07-22T17:37:00.667Z,38.51
2017-07-22T17:39:25.629Z,38.04
2017-07-22T17:41:42.128Z,38.53
2017-07-22T17:44:07.109Z,38.63
2017-07-22T17:46:32.063Z,39.61
2017-07-22T17:48:57.062Z,38.75
2017-07-22T17:51:22.035Z,38.84
2017-07-22T17:53:46.983Z,39.02
2017-07-22T17:56:11.970Z,39.51
2017-07-22T17:58:36.879Z,39.51
2017-07-22T18:01:01.796Z,39.61
2017-07-22T18:03:26.725Z,39.61
2017-07-22T18:05:43.201Z,40.27
2017-07-22T18:08:08.119Z,40.66
2017-07-22T18:10:33.041Z,41.15
2017-07-22T18:12:58.017Z,40.17
2017-07-22T18:15:14.457Z,40.45
2017-07-22T18:17:39.374Z,40.64
2017-07-22T18:20:04.304Z,40.82
2017-07-22T18:22:29.293Z,41.21
2017-07-22T18:24:54.452Z,40.55
2017-07-22T18:27:19.389Z,40.92
2017-07-22T18:29:44.370Z,40.92
2017-07-22T18:32:09.248Z,40.63
2017-07-22T18:34:34.169Z,40.63
2017-07-22T18:36:59.179Z,40.84
2017-07-22T18:39:24.082Z,40.92
2017-07-22T18:41:35.053Z,41.31
2017-07-22T18:43:59.927Z,41.5
2017-07-22T18:46:24.790Z,41.77
2017-07-22T18:48:49.659Z,41.87
2017-07-22T18:51:14.696Z,41.87
2017-07-22T18:53:39.570Z,42.07
2017-07-22T18:56:04.308Z,42.26
2017-07-22T18:58:29.117Z,42.55
2017-07-22T19:00:54.021Z,42.34
2017-07-22T19:03:18.817Z,42.65
2017-07-22T19:05:43.634Z,42.54
2017-07-22T19:08:08.543Z,43.51
2017-07-22T19:10:33.527Z,43.22
2017-07-22T19:12:58.309Z,43.61
2017-07-22T19:15:23.123Z,44.17
2017-07-22T19:17:49.522Z,44.95
2017-07-22T19:20:12.741Z,43.9
2017-07-22T19:22:40.522Z,43.51
2017-07-22T19:25:05.258Z,44.07
2017-07-22T19:27:30.033Z,43.98
2017-07-22T19:29:54.835Z,43.59
2017-07-22T19:32:19.653Z,44.17
2017-07-22T19:34:44.667Z,44.85
2017-07-22T19:37:09.495Z,45.22
2017-07-22T19:39:34.270Z,45.81
2017-07-22T19:41:58.980Z,45.34
2017-07-22T19:44:23.818Z,45.64
2017-07-22T19:46:48.587Z,45.64
2017-07-22T19:49:04.888Z,46.2
2017-07-22T19:51:30.270Z,46.7
2017-07-22T19:53:55.917Z,46.12
2017-07-22T19:56:21.009Z,46.9
2017-07-22T19:58:37.391Z,47.36
2017-07-22T20:01:02.149Z,47.46
2017-07-22T20:03:26.909Z,47.36
2017-07-22T20:05:52.401Z,46.88
2017-07-22T20:08:02.309Z,46.78
2017-07-22T20:10:27.071Z,46.1
2017-07-22T20:12:43.356Z,46.59
2017-07-22T20:15:08.105Z,46.49
2017-07-22T20:17:32.850Z,46.17
2017-07-22T20:19:49.072Z,47.25
2017-07-22T20:22:13.798Z,46.64
2017-07-22T20:24:38.529Z,46.83
2017-07-22T20:26:54.751Z,46.83
2017-07-22T20:29:19.552Z,47.03
2017-07-22T20:31:44.365Z,47.03
2017-07-22T20:35:36.534Z,47.03
2017-07-22T20:38:01.429Z,47.39
2017-07-22T20:40:26.034Z,47.98
2017-07-22T20:42:50.752Z,48.17
2017-07-22T20:45:15.537Z,48.07
2017-07-22T20:47:40.331Z,47.88
2017-07-22T20:49:50.397Z,48.17
2017-07-22T20:52:15.135Z,48.07
2017-07-22T20:54:39.813Z,48.05
2017-07-22T20:56:41.334Z,47.86
2017-07-22T20:59:06.071Z,48.15
2017-07-22T21:01:22.368Z,48.05
2017-07-22T21:03:38.562Z,48.05
2017-07-22T21:06:03.156Z,47.37
2017-07-22T21:10:04.469Z,47.56
2017-07-22T21:12:29.083Z,47.17
2017-07-22T21:14:53.756Z,47.47
2017-07-22T21:17:18.479Z,46.59
2017-07-22T21:19:43.143Z,46.96
2017-07-22T21:22:07.783Z,46.57
2017-07-22T21:24:32.426Z,46.77
2017-07-22T21:26:57.122Z,47.15
2017-07-22T21:29:21.847Z,46.77
2017-07-22T21:31:46.551Z,46.86
2017-07-22T21:34:11.202Z,46.74
2017-07-22T21:36:35.811Z,47.23
2017-07-22T21:39:00.421Z,47.52
2017-07-22T21:41:26.430Z,48.37
2017-07-22T21:43:50.933Z,47.78
2017-07-22T21:46:15.521Z,48.35
2017-07-22T21:48:40.125Z,48.37
2017-07-22T21:51:04.725Z,48.47
2017-07-22T21:53:29.281Z,48.25
2017-07-22T21:55:54.033Z,49.15
2017-07-22T21:58:20.358Z,48.75
2017-07-22T22:00:44.916Z,48.95
2017-07-22T22:03:09.532Z,48.73
2017-07-22T22:05:34.080Z,50.19
2017-07-22T22:07:58.651Z,49.99
2017-07-22T22:10:23.221Z,49.32
2017-07-22T22:12:47.791Z,49.8
2017-07-22T22:15:12.377Z,49.99
2017-07-22T22:17:36.934Z,50.29
2017-07-22T22:20:01.563Z,50.68
2017-07-22T22:22:26.084Z,50.87
2017-07-22T22:24:50.659Z,51.62
2017-07-22T22:27:15.222Z,51.91
2017-07-22T22:29:39.757Z,52.59
2017-07-22T22:32:04.263Z,53.08
2017-07-22T22:34:28.943Z,52.88
2017-07-22T22:36:53.566Z,53.08
2017-07-22T22:39:18.114Z,53.75
2017-07-22T22:41:42.643Z,53.95
2017-07-22T22:44:07.174Z,54.24
2017-07-22T22:46:31.654Z,54.14
2017-07-22T22:48:56.166Z,54.82
2017-07-22T22:51:20.788Z,54.82
2017-07-22T22:53:45.280Z,55.02
2017-07-22T22:56:09.796Z,55.5
2017-07-22T22:58:34.291Z,56.09
2017-07-22T23:02:34.664Z,57.03
2017-07-22T23:04:59.211Z,56.67
2017-07-22T23:07:23.715Z,57.44
2017-07-22T23:09:48.204Z,58.39
2017-07-22T23:12:12.710Z,58.87
2017-07-22T23:14:05.711Z,59.45
2017-07-22T23:16:21.768Z,59.81
2017-07-22T23:18:46.195Z,61.07
2017-07-22T23:21:10.692Z,60.97
2017-07-22T23:23:35.147Z,61.24
2017-07-22T23:25:59.608Z,60.94
2017-07-22T23:28:15.582Z,62.01
2017-07-22T23:30:39.980Z,62.1
2017-07-22T23:32:55.968Z,62.4
2017-07-22T23:35:11.944Z,63.04
2017-07-22T23:37:27.909Z,62.98
2017-07-22T23:39:52.339Z,62.59
2017-07-22T23:42:16.762Z,63.37
2017-07-22T23:44:32.770Z,63.27
2017-07-22T23:46:57.203Z,62.69
2017-07-22T23:49:21.651Z,63.56
2017-07-22T23:51:46.059Z,64.04
2017-07-22T23:54:10.501Z,63.56
2017-07-22T23:56:26.497Z,63.75
2017-07-22T23:58:50.964Z,65.27
